sensor_id;sensor_type;location;lat;lon;timestamp;P1;durP1;ratioP1;P2;durP2;ratioP2
75691;SDS011;64307;52.508;6.090;2023-08-06T00:01:36;14.00;;;7.47;;
75691;SDS011;64307;52.508;6.090;2023-08-06T00:04:01;14.07;;;7.70;;
75691;SDS011;64307;52.508;6.090;2023-08-06T00:06:27;12.25;;;6.90;;
75691;SDS011;64307;52.508;6.090;2023-08-06T00:08:52;11.80;;;7.05;;
75691;SDS011;64307;52.508;6.090;2023-08-06T00:11:17;12.32;;;7.40;;
75691;SDS011;64307;52.508;6.090;2023-08-06T00:13:43;13.98;;;7.60;;
75691;SDS011;64307;52.508;6.090;2023-08-06T00:16:12;13.90;;;8.00;;
75691;SDS011;64307;52.508;6.090;2023-08-06T00:18:38;11.23;;;7.95;;
75691;SDS011;64307;52.508;6.090;2023-08-06T00:21:04;10.55;;;7.10;;
75691;SDS011;64307;52.508;6.090;2023-08-06T00:23:29;12.73;;;7.57;;
75691;SDS011;64307;52.508;6.090;2023-08-06T00:25:55;11.85;;;6.82;;
75691;SDS011;64307;52.508;6.090;2023-08-06T00:28:20;12.20;;;7.75;;
75691;SDS011;64307;52.508;6.090;2023-08-06T00:30:46;10.75;;;7.53;;
75691;SDS011;64307;52.508;6.090;2023-08-06T00:33:11;12.83;;;7.70;;
75691;SDS011;64307;52.508;6.090;2023-08-06T00:35:36;13.00;;;7.40;;
75691;SDS011;64307;52.508;6.090;2023-08-06T00:38:02;13.90;;;7.25;;
75691;SDS011;64307;52.508;6.090;2023-08-06T00:40:27;13.63;;;7.72;;
75691;SDS011;64307;52.508;6.090;2023-08-06T00:42:53;11.45;;;7.00;;
75691;SDS011;64307;52.508;6.090;2023-08-06T00:45:19;12.60;;;7.20;;
75691;SDS011;64307;52.508;6.090;2023-08-06T00:47:44;13.73;;;6.78;;
75691;SDS011;64307;52.508;6.090;2023-08-06T00:50:10;14.55;;;7.13;;
75691;SDS011;64307;52.508;6.090;2023-08-06T00:52:36;14.93;;;7.35;;
75691;SDS011;64307;52.508;6.090;2023-08-06T00:55:02;10.93;;;7.45;;
75691;SDS011;64307;52.508;6.090;2023-08-06T00:57:28;10.52;;;6.78;;
75691;SDS011;64307;52.508;6.090;2023-08-06T00:59:53;13.10;;;8.00;;
75691;SDS011;64307;52.508;6.090;2023-08-06T01:02:19;10.85;;;7.53;;
75691;SDS011;64307;52.508;6.090;2023-08-06T01:04:44;11.85;;;6.93;;
75691;SDS011;64307;52.508;6.090;2023-08-06T01:09:47;14.57;;;7.57;;
75691;SDS011;64307;52.508;6.090;2023-08-06T01:15:38;12.25;;;7.47;;
75691;SDS011;64307;52.508;6.090;2023-08-06T01:18:08;10.32;;;6.63;;
75691;SDS011;64307;52.508;6.090;2023-08-06T01:20:35;10.52;;;7.38;;
75691;SDS011;64307;52.508;6.090;2023-08-06T01:23:00;11.07;;;6.90;;
75691;SDS011;64307;52.508;6.090;2023-08-06T01:25:30;12.60;;;7.45;;
75691;SDS011;64307;52.508;6.090;2023-08-06T01:28:01;13.73;;;7.50;;
75691;SDS011;64307;52.508;6.090;2023-08-06T01:30:32;12.15;;;6.47;;
75691;SDS011;64307;52.508;6.090;2023-08-06T01:33:02;11.00;;;7.32;;
75691;SDS011;64307;52.508;6.090;2023-08-06T01:35:30;13.40;;;7.22;;
75691;SDS011;64307;52.508;6.090;2023-08-06T01:37:56;11.98;;;7.97;;
75691;SDS011;64307;52.508;6.090;2023-08-06T01:40:21;12.07;;;7.07;;
75691;SDS011;64307;52.508;6.090;2023-08-06T01:42:47;11.68;;;6.50;;
75691;SDS011;64307;52.508;6.090;2023-08-06T01:45:12;14.13;;;7.10;;
75691;SDS011;64307;52.508;6.090;2023-08-06T01:47:38;13.63;;;7.72;;
75691;SDS011;64307;52.508;6.090;2023-08-06T01:50:03;11.98;;;6.90;;
75691;SDS011;64307;52.508;6.090;2023-08-06T01:52:29;12.30;;;7.57;;
75691;SDS011;64307;52.508;6.090;2023-08-06T01:54:54;12.82;;;7.13;;
75691;SDS011;64307;52.508;6.090;2023-08-06T01:57:20;11.88;;;6.68;;
75691;SDS011;64307;52.508;6.090;2023-08-06T01:59:45;12.85;;;8.32;;
75691;SDS011;64307;52.508;6.090;2023-08-06T02:02:10;10.90;;;7.27;;
75691;SDS011;64307;52.508;6.090;2023-08-06T02:04:35;13.55;;;7.13;;
75691;SDS011;64307;52.508;6.090;2023-08-06T02:07:01;10.88;;;7.13;;
75691;SDS011;64307;52.508;6.090;2023-08-06T02:09:26;12.40;;;7.65;;
75691;SDS011;64307;52.508;6.090;2023-08-06T02:11:51;9.55;;;6.45;;
75691;SDS011;64307;52.508;6.090;2023-08-06T02:14:17;12.40;;;7.25;;
75691;SDS011;64307;52.508;6.090;2023-08-06T02:16:42;11.23;;;7.30;;
75691;SDS011;64307;52.508;6.090;2023-08-06T02:19:07;11.57;;;7.07;;
75691;SDS011;64307;52.508;6.090;2023-08-06T02:21:32;14.43;;;7.47;;
75691;SDS011;64307;52.508;6.090;2023-08-06T02:23:58;12.45;;;7.15;;
75691;SDS011;64307;52.508;6.090;2023-08-06T02:26:23;10.95;;;7.15;;
75691;SDS011;64307;52.508;6.090;2023-08-06T02:28:48;11.38;;;6.65;;
75691;SDS011;64307;52.508;6.090;2023-08-06T02:31:14;10.73;;;6.97;;
75691;SDS011;64307;52.508;6.090;2023-08-06T02:33:39;11.70;;;7.07;;
75691;SDS011;64307;52.508;6.090;2023-08-06T02:36:04;11.33;;;6.63;;
75691;SDS011;64307;52.508;6.090;2023-08-06T02:38:30;13.10;;;6.70;;
75691;SDS011;64307;52.508;6.090;2023-08-06T02:40:56;11.93;;;6.97;;
75691;SDS011;64307;52.508;6.090;2023-08-06T02:43:21;12.88;;;7.53;;
75691;SDS011;64307;52.508;6.090;2023-08-06T02:45:47;12.38;;;7.65;;
75691;SDS011;64307;52.508;6.090;2023-08-06T02:48:12;11.90;;;7.07;;
75691;SDS011;64307;52.508;6.090;2023-08-06T02:50:40;12.20;;;6.68;;
75691;SDS011;64307;52.508;6.090;2023-08-06T02:53:06;13.05;;;7.50;;
75691;SDS011;64307;52.508;6.090;2023-08-06T02:55:33;15.43;;;8.15;;
75691;SDS011;64307;52.508;6.090;2023-08-06T02:57:59;13.25;;;7.38;;
75691;SDS011;64307;52.508;6.090;2023-08-06T03:00:25;12.02;;;7.45;;
75691;SDS011;64307;52.508;6.090;2023-08-06T03:02:50;11.32;;;7.35;;
75691;SDS011;64307;52.508;6.090;2023-08-06T03:05:15;11.05;;;7.15;;
75691;SDS011;64307;52.508;6.090;2023-08-06T03:07:41;13.50;;;7.80;;
75691;SDS011;64307;52.508;6.090;2023-08-06T03:10:06;12.35;;;7.13;;
75691;SDS011;64307;52.508;6.090;2023-08-06T03:12:31;12.75;;;7.55;;
75691;SDS011;64307;52.508;6.090;2023-08-06T03:14:57;12.93;;;7.37;;
75691;SDS011;64307;52.508;6.090;2023-08-06T03:17:22;11.77;;;7.30;;
75691;SDS011;64307;52.508;6.090;2023-08-06T03:19:47;11.47;;;7.40;;
75691;SDS011;64307;52.508;6.090;2023-08-06T03:22:12;12.93;;;7.77;;
75691;SDS011;64307;52.508;6.090;2023-08-06T03:24:38;11.60;;;7.85;;
75691;SDS011;64307;52.508;6.090;2023-08-06T03:27:03;13.40;;;7.85;;
75691;SDS011;64307;52.508;6.090;2023-08-06T03:29:29;13.60;;;7.35;;
75691;SDS011;64307;52.508;6.090;2023-08-06T03:31:54;12.90;;;6.90;;
75691;SDS011;64307;52.508;6.090;2023-08-06T03:34:19;11.47;;;7.63;;
75691;SDS011;64307;52.508;6.090;2023-08-06T03:36:44;12.75;;;7.43;;
75691;SDS011;64307;52.508;6.090;2023-08-06T03:39:10;12.57;;;7.20;;
75691;SDS011;64307;52.508;6.090;2023-08-06T03:41:35;12.48;;;7.53;;
75691;SDS011;64307;52.508;6.090;2023-08-06T03:44:00;11.60;;;7.10;;
75691;SDS011;64307;52.508;6.090;2023-08-06T03:46:28;11.40;;;7.88;;
75691;SDS011;64307;52.508;6.090;2023-08-06T03:48:54;13.88;;;7.80;;
75691;SDS011;64307;52.508;6.090;2023-08-06T03:51:19;11.63;;;6.97;;
75691;SDS011;64307;52.508;6.090;2023-08-06T03:53:44;14.07;;;7.80;;
75691;SDS011;64307;52.508;6.090;2023-08-06T03:56:10;13.13;;;8.77;;
75691;SDS011;64307;52.508;6.090;2023-08-06T03:58:35;12.82;;;7.93;;
75691;SDS011;64307;52.508;6.090;2023-08-06T04:01:01;13.83;;;8.80;;
75691;SDS011;64307;52.508;6.090;2023-08-06T04:03:27;13.48;;;8.30;;
75691;SDS011;64307;52.508;6.090;2023-08-06T04:05:53;11.27;;;7.15;;
75691;SDS011;64307;52.508;6.090;2023-08-06T04:08:19;11.65;;;8.05;;
75691;SDS011;64307;52.508;6.090;2023-08-06T04:10:44;14.23;;;8.15;;
75691;SDS011;64307;52.508;6.090;2023-08-06T04:13:09;16.37;;;8.97;;
75691;SDS011;64307;52.508;6.090;2023-08-06T04:15:34;12.80;;;8.43;;
75691;SDS011;64307;52.508;6.090;2023-08-06T04:18:00;14.18;;;8.60;;
75691;SDS011;64307;52.508;6.090;2023-08-06T04:20:25;15.88;;;8.68;;
75691;SDS011;64307;52.508;6.090;2023-08-06T04:22:50;14.10;;;8.65;;
75691;SDS011;64307;52.508;6.090;2023-08-06T04:25:15;11.93;;;7.77;;
75691;SDS011;64307;52.508;6.090;2023-08-06T04:27:45;16.23;;;8.50;;
75691;SDS011;64307;52.508;6.090;2023-08-06T04:30:14;13.25;;;8.30;;
75691;SDS011;64307;52.508;6.090;2023-08-06T04:32:39;17.55;;;9.13;;
75691;SDS011;64307;52.508;6.090;2023-08-06T04:35:04;17.35;;;8.63;;
75691;SDS011;64307;52.508;6.090;2023-08-06T04:37:30;13.60;;;8.85;;
75691;SDS011;64307;52.508;6.090;2023-08-06T04:39:55;14.90;;;8.57;;
75691;SDS011;64307;52.508;6.090;2023-08-06T04:42:21;13.47;;;8.43;;
75691;SDS011;64307;52.508;6.090;2023-08-06T04:44:46;13.98;;;8.15;;
75691;SDS011;64307;52.508;6.090;2023-08-06T04:47:11;13.00;;;8.32;;
75691;SDS011;64307;52.508;6.090;2023-08-06T04:49:36;13.52;;;9.02;;
75691;SDS011;64307;52.508;6.090;2023-08-06T04:52:02;13.27;;;8.53;;
75691;SDS011;64307;52.508;6.090;2023-08-06T04:54:27;16.80;;;9.55;;
75691;SDS011;64307;52.508;6.090;2023-08-06T04:56:52;15.17;;;9.70;;
75691;SDS011;64307;52.508;6.090;2023-08-06T04:59:18;16.17;;;10.13;;
75691;SDS011;64307;52.508;6.090;2023-08-06T05:01:43;13.03;;;9.47;;
75691;SDS011;64307;52.508;6.090;2023-08-06T05:04:08;15.20;;;9.13;;
75691;SDS011;64307;52.508;6.090;2023-08-06T05:06:33;13.10;;;8.90;;
75691;SDS011;64307;52.508;6.090;2023-08-06T05:08:59;14.15;;;9.48;;
75691;SDS011;64307;52.508;6.090;2023-08-06T05:11:24;17.38;;;10.30;;
75691;SDS011;64307;52.508;6.090;2023-08-06T05:13:49;15.73;;;9.55;;
75691;SDS011;64307;52.508;6.090;2023-08-06T05:16:15;14.63;;;9.90;;
75691;SDS011;64307;52.508;6.090;2023-08-06T05:18:40;22.15;;;10.45;;
75691;SDS011;64307;52.508;6.090;2023-08-06T05:21:06;15.20;;;9.98;;
75691;SDS011;64307;52.508;6.090;2023-08-06T05:23:32;15.70;;;10.27;;
75691;SDS011;64307;52.508;6.090;2023-08-06T05:25:57;16.77;;;10.23;;
75691;SDS011;64307;52.508;6.090;2023-08-06T05:28:22;14.02;;;9.13;;
75691;SDS011;64307;52.508;6.090;2023-08-06T05:30:48;15.10;;;9.30;;
75691;SDS011;64307;52.508;6.090;2023-08-06T05:33:13;15.17;;;8.57;;
75691;SDS011;64307;52.508;6.090;2023-08-06T05:35:40;15.70;;;9.85;;
75691;SDS011;64307;52.508;6.090;2023-08-06T05:38:05;15.07;;;9.45;;
75691;SDS011;64307;52.508;6.090;2023-08-06T05:40:32;14.50;;;9.63;;
75691;SDS011;64307;52.508;6.090;2023-08-06T05:42:58;13.60;;;8.75;;
75691;SDS011;64307;52.508;6.090;2023-08-06T05:45:25;15.13;;;9.40;;
75691;SDS011;64307;52.508;6.090;2023-08-06T05:47:50;12.65;;;8.52;;
75691;SDS011;64307;52.508;6.090;2023-08-06T05:50:15;16.92;;;10.10;;
75691;SDS011;64307;52.508;6.090;2023-08-06T05:52:41;14.27;;;9.40;;
75691;SDS011;64307;52.508;6.090;2023-08-06T05:55:06;14.45;;;9.30;;
75691;SDS011;64307;52.508;6.090;2023-08-06T05:57:32;14.50;;;8.85;;
75691;SDS011;64307;52.508;6.090;2023-08-06T05:59:57;14.63;;;9.40;;
75691;SDS011;64307;52.508;6.090;2023-08-06T06:02:22;12.20;;;8.07;;
75691;SDS011;64307;52.508;6.090;2023-08-06T06:04:47;12.18;;;7.97;;
75691;SDS011;64307;52.508;6.090;2023-08-06T06:07:13;12.63;;;9.18;;
75691;SDS011;64307;52.508;6.090;2023-08-06T06:09:39;11.38;;;8.00;;
75691;SDS011;64307;52.508;6.090;2023-08-06T06:12:05;13.43;;;9.05;;
75691;SDS011;64307;52.508;6.090;2023-08-06T06:14:31;13.10;;;9.07;;
75691;SDS011;64307;52.508;6.090;2023-08-06T06:16:57;13.73;;;8.27;;
75691;SDS011;64307;52.508;6.090;2023-08-06T06:19:22;13.03;;;8.63;;
75691;SDS011;64307;52.508;6.090;2023-08-06T06:21:47;12.25;;;8.38;;
75691;SDS011;64307;52.508;6.090;2023-08-06T06:24:13;11.67;;;8.03;;
75691;SDS011;64307;52.508;6.090;2023-08-06T06:26:38;12.55;;;8.90;;
75691;SDS011;64307;52.508;6.090;2023-08-06T06:29:03;13.18;;;8.48;;
75691;SDS011;64307;52.508;6.090;2023-08-06T06:31:29;12.48;;;8.32;;
75691;SDS011;64307;52.508;6.090;2023-08-06T06:33:54;13.05;;;8.35;;
75691;SDS011;64307;52.508;6.090;2023-08-06T06:36:20;14.70;;;7.67;;
75691;SDS011;64307;52.508;6.090;2023-08-06T06:38:45;15.57;;;9.05;;
75691;SDS011;64307;52.508;6.090;2023-08-06T06:41:11;13.10;;;8.27;;
75691;SDS011;64307;52.508;6.090;2023-08-06T06:43:36;11.02;;;7.70;;
75691;SDS011;64307;52.508;6.090;2023-08-06T06:46:03;11.57;;;7.70;;
75691;SDS011;64307;52.508;6.090;2023-08-06T06:48:29;12.65;;;7.57;;
75691;SDS011;64307;52.508;6.090;2023-08-06T06:50:56;12.32;;;7.88;;
75691;SDS011;64307;52.508;6.090;2023-08-06T06:53:23;10.55;;;7.13;;
75691;SDS011;64307;52.508;6.090;2023-08-06T06:55:56;12.20;;;8.45;;
75691;SDS011;64307;52.508;6.090;2023-08-06T06:58:26;11.18;;;8.05;;
75691;SDS011;64307;52.508;6.090;2023-08-06T07:00:51;10.90;;;7.97;;
75691;SDS011;64307;52.508;6.090;2023-08-06T07:03:16;11.70;;;8.23;;
75691;SDS011;64307;52.508;6.090;2023-08-06T07:05:43;14.52;;;7.78;;
75691;SDS011;64307;52.508;6.090;2023-08-06T07:08:09;9.77;;;7.00;;
75691;SDS011;64307;52.508;6.090;2023-08-06T07:10:34;10.00;;;7.53;;
75691;SDS011;64307;52.508;6.090;2023-08-06T07:13:00;11.53;;;8.57;;
75691;SDS011;64307;52.508;6.090;2023-08-06T07:15:25;10.20;;;7.50;;
75691;SDS011;64307;52.508;6.090;2023-08-06T07:17:50;10.85;;;7.35;;
75691;SDS011;64307;52.508;6.090;2023-08-06T07:20:16;10.20;;;7.00;;
75691;SDS011;64307;52.508;6.090;2023-08-06T07:22:41;13.13;;;8.35;;
75691;SDS011;64307;52.508;6.090;2023-08-06T07:25:06;13.80;;;7.83;;
75691;SDS011;64307;52.508;6.090;2023-08-06T07:27:32;12.45;;;8.10;;
75691;SDS011;64307;52.508;6.090;2023-08-06T07:29:57;13.30;;;9.20;;
75691;SDS011;64307;52.508;6.090;2023-08-06T07:32:23;11.00;;;7.57;;
75691;SDS011;64307;52.508;6.090;2023-08-06T07:34:48;12.18;;;7.90;;
75691;SDS011;64307;52.508;6.090;2023-08-06T07:37:14;14.13;;;8.20;;
75691;SDS011;64307;52.508;6.090;2023-08-06T07:39:39;12.02;;;8.48;;
75691;SDS011;64307;52.508;6.090;2023-08-06T07:42:06;11.75;;;8.20;;
75691;SDS011;64307;52.508;6.090;2023-08-06T07:44:32;11.48;;;8.27;;
75691;SDS011;64307;52.508;6.090;2023-08-06T07:46:57;12.63;;;7.85;;
75691;SDS011;64307;52.508;6.090;2023-08-06T07:49:22;14.83;;;8.27;;
75691;SDS011;64307;52.508;6.090;2023-08-06T07:51:48;12.32;;;8.40;;
75691;SDS011;64307;52.508;6.090;2023-08-06T07:54:13;13.53;;;7.63;;
75691;SDS011;64307;52.508;6.090;2023-08-06T07:56:38;14.23;;;8.10;;
75691;SDS011;64307;52.508;6.090;2023-08-06T07:59:04;10.02;;;6.97;;
75691;SDS011;64307;52.508;6.090;2023-08-06T08:01:29;11.38;;;8.15;;
75691;SDS011;64307;52.508;6.090;2023-08-06T08:03:54;11.07;;;8.57;;
75691;SDS011;64307;52.508;6.090;2023-08-06T08:06:19;12.17;;;8.30;;
75691;SDS011;64307;52.508;6.090;2023-08-06T08:08:45;13.17;;;8.83;;
75691;SDS011;64307;52.508;6.090;2023-08-06T08:11:10;9.80;;;7.35;;
75691;SDS011;64307;52.508;6.090;2023-08-06T08:13:35;10.87;;;7.93;;
75691;SDS011;64307;52.508;6.090;2023-08-06T08:16:01;13.10;;;8.47;;
75691;SDS011;64307;52.508;6.090;2023-08-06T08:18:26;10.68;;;7.68;;
75691;SDS011;64307;52.508;6.090;2023-08-06T08:20:52;11.07;;;8.20;;
75691;SDS011;64307;52.508;6.090;2023-08-06T08:23:17;11.57;;;8.35;;
75691;SDS011;64307;52.508;6.090;2023-08-06T08:25:43;12.02;;;8.40;;
75691;SDS011;64307;52.508;6.090;2023-08-06T08:28:08;11.60;;;8.80;;
75691;SDS011;64307;52.508;6.090;2023-08-06T08:30:33;11.35;;;8.10;;
75691;SDS011;64307;52.508;6.090;2023-08-06T08:32:59;12.48;;;7.90;;
75691;SDS011;64307;52.508;6.090;2023-08-06T08:35:24;13.73;;;8.17;;
75691;SDS011;64307;52.508;6.090;2023-08-06T08:37:50;11.68;;;7.85;;
75691;SDS011;64307;52.508;6.090;2023-08-06T08:40:15;11.30;;;8.18;;
75691;SDS011;64307;52.508;6.090;2023-08-06T08:42:41;10.82;;;8.10;;
75691;SDS011;64307;52.508;6.090;2023-08-06T08:45:11;11.27;;;8.77;;
75691;SDS011;64307;52.508;6.090;2023-08-06T08:47:38;10.75;;;7.70;;
75691;SDS011;64307;52.508;6.090;2023-08-06T08:50:08;9.85;;;7.85;;
75691;SDS011;64307;52.508;6.090;2023-08-06T08:52:35;11.88;;;7.60;;
75691;SDS011;64307;52.508;6.090;2023-08-06T08:55:01;10.93;;;7.80;;
75691;SDS011;64307;52.508;6.090;2023-08-06T08:57:27;9.90;;;7.85;;
75691;SDS011;64307;52.508;6.090;2023-08-06T08:59:52;9.98;;;7.32;;
75691;SDS011;64307;52.508;6.090;2023-08-06T09:02:17;9.48;;;7.07;;
75691;SDS011;64307;52.508;6.090;2023-08-06T09:04:46;9.90;;;6.78;;
75691;SDS011;64307;52.508;6.090;2023-08-06T09:07:13;8.43;;;6.57;;
75691;SDS011;64307;52.508;6.090;2023-08-06T09:09:43;10.05;;;7.13;;
75691;SDS011;64307;52.508;6.090;2023-08-06T09:12:11;15.38;;;7.38;;
75691;SDS011;64307;52.508;6.090;2023-08-06T09:14:39;11.32;;;7.20;;
75691;SDS011;64307;52.508;6.090;2023-08-06T09:17:04;9.75;;;6.35;;
75691;SDS011;64307;52.508;6.090;2023-08-06T09:19:31;9.00;;;6.85;;
75691;SDS011;64307;52.508;6.090;2023-08-06T09:21:56;10.18;;;6.50;;
75691;SDS011;64307;52.508;6.090;2023-08-06T09:24:22;7.97;;;6.03;;
75691;SDS011;64307;52.508;6.090;2023-08-06T09:26:47;8.30;;;6.28;;
75691;SDS011;64307;52.508;6.090;2023-08-06T09:29:12;7.93;;;5.82;;
75691;SDS011;64307;52.508;6.090;2023-08-06T09:31:42;6.65;;;5.40;;
75691;SDS011;64307;52.508;6.090;2023-08-06T09:34:11;7.78;;;5.45;;
75691;SDS011;64307;52.508;6.090;2023-08-06T09:36:47;9.35;;;5.40;;
75691;SDS011;64307;52.508;6.090;2023-08-06T09:39:16;9.30;;;5.85;;
75691;SDS011;64307;52.508;6.090;2023-08-06T09:41:42;8.75;;;4.68;;
75691;SDS011;64307;52.508;6.090;2023-08-06T09:44:17;7.63;;;5.70;;
75691;SDS011;64307;52.508;6.090;2023-08-06T09:49:20;8.10;;;5.47;;
75691;SDS011;64307;52.508;6.090;2023-08-06T09:51:52;6.68;;;5.20;;
75691;SDS011;64307;52.508;6.090;2023-08-06T09:54:20;6.30;;;4.35;;
75691;SDS011;64307;52.508;6.090;2023-08-06T09:56:47;8.05;;;4.90;;
75691;SDS011;64307;52.508;6.090;2023-08-06T09:59:13;6.65;;;4.97;;
75691;SDS011;64307;52.508;6.090;2023-08-06T10:01:39;6.80;;;4.85;;
75691;SDS011;64307;52.508;6.090;2023-08-06T10:04:05;6.50;;;4.43;;
75691;SDS011;64307;52.508;6.090;2023-08-06T10:06:37;6.75;;;4.90;;
75691;SDS011;64307;52.508;6.090;2023-08-06T10:09:03;7.03;;;4.75;;
75691;SDS011;64307;52.508;6.090;2023-08-06T10:11:29;8.55;;;5.45;;
75691;SDS011;64307;52.508;6.090;2023-08-06T10:13:57;7.15;;;5.57;;
75691;SDS011;64307;52.508;6.090;2023-08-06T10:16:27;8.68;;;5.50;;
75691;SDS011;64307;52.508;6.090;2023-08-06T10:18:53;7.43;;;5.18;;
75691;SDS011;64307;52.508;6.090;2023-08-06T10:21:19;7.72;;;5.85;;
75691;SDS011;64307;52.508;6.090;2023-08-06T10:23:49;8.05;;;5.30;;
75691;SDS011;64307;52.508;6.090;2023-08-06T10:26:19;11.82;;;5.85;;
75691;SDS011;64307;52.508;6.090;2023-08-06T10:28:44;7.70;;;6.07;;
75691;SDS011;64307;52.508;6.090;2023-08-06T10:31:09;7.38;;;5.38;;
75691;SDS011;64307;52.508;6.090;2023-08-06T10:33:39;7.03;;;5.55;;
75691;SDS011;64307;52.508;6.090;2023-08-06T10:36:06;7.00;;;5.25;;
75691;SDS011;64307;52.508;6.090;2023-08-06T10:38:34;7.03;;;5.05;;
75691;SDS011;64307;52.508;6.090;2023-08-06T10:41:08;6.35;;;5.03;;
75691;SDS011;64307;52.508;6.090;2023-08-06T10:43:41;6.22;;;5.25;;
75691;SDS011;64307;52.508;6.090;2023-08-06T10:46:22;6.75;;;5.65;;
75691;SDS011;64307;52.508;6.090;2023-08-06T10:48:49;8.20;;;4.93;;
75691;SDS011;64307;52.508;6.090;2023-08-06T10:51:14;5.63;;;4.83;;
75691;SDS011;64307;52.508;6.090;2023-08-06T10:53:43;8.15;;;5.63;;
75691;SDS011;64307;52.508;6.090;2023-08-06T10:56:17;8.35;;;4.97;;
75691;SDS011;64307;52.508;6.090;2023-08-06T10:58:46;6.18;;;4.65;;
75691;SDS011;64307;52.508;6.090;2023-08-06T11:01:12;5.65;;;4.47;;
75691;SDS011;64307;52.508;6.090;2023-08-06T11:03:38;5.80;;;4.05;;
75691;SDS011;64307;52.508;6.090;2023-08-06T11:06:06;5.10;;;3.90;;
75691;SDS011;64307;52.508;6.090;2023-08-06T11:08:40;6.15;;;3.60;;
75691;SDS011;64307;52.508;6.090;2023-08-06T11:11:12;6.45;;;4.68;;
75691;SDS011;64307;52.508;6.090;2023-08-06T11:13:42;6.97;;;4.50;;
75691;SDS011;64307;52.508;6.090;2023-08-06T11:16:23;6.20;;;4.18;;
75691;SDS011;64307;52.508;6.090;2023-08-06T11:18:51;7.88;;;5.07;;
75691;SDS011;64307;52.508;6.090;2023-08-06T11:21:22;7.95;;;4.82;;
75691;SDS011;64307;52.508;6.090;2023-08-06T11:23:49;6.25;;;4.28;;
75691;SDS011;64307;52.508;6.090;2023-08-06T11:26:22;6.57;;;4.88;;
75691;SDS011;64307;52.508;6.090;2023-08-06T11:28:52;6.70;;;4.85;;
75691;SDS011;64307;52.508;6.090;2023-08-06T11:31:18;5.85;;;4.93;;
75691;SDS011;64307;52.508;6.090;2023-08-06T11:33:49;5.53;;;4.40;;
75691;SDS011;64307;52.508;6.090;2023-08-06T11:36:15;7.05;;;5.25;;
75691;SDS011;64307;52.508;6.090;2023-08-06T11:38:41;7.05;;;5.45;;
75691;SDS011;64307;52.508;6.090;2023-08-06T11:41:06;8.93;;;5.18;;
75691;SDS011;64307;52.508;6.090;2023-08-06T11:43:31;6.50;;;5.20;;
75691;SDS011;64307;52.508;6.090;2023-08-06T11:45:58;7.68;;;5.05;;
75691;SDS011;64307;52.508;6.090;2023-08-06T11:48:25;7.38;;;5.05;;
75691;SDS011;64307;52.508;6.090;2023-08-06T11:50:53;6.82;;;5.10;;
75691;SDS011;64307;52.508;6.090;2023-08-06T11:53:19;7.50;;;5.05;;
75691;SDS011;64307;52.508;6.090;2023-08-06T11:55:46;7.05;;;5.72;;
75691;SDS011;64307;52.508;6.090;2023-08-06T11:58:11;8.23;;;4.90;;
75691;SDS011;64307;52.508;6.090;2023-08-06T12:00:37;5.85;;;5.03;;
75691;SDS011;64307;52.508;6.090;2023-08-06T12:03:04;7.15;;;4.82;;
75691;SDS011;64307;52.508;6.090;2023-08-06T12:05:31;5.40;;;4.00;;
75691;SDS011;64307;52.508;6.090;2023-08-06T12:07:58;4.93;;;3.97;;
75691;SDS011;64307;52.508;6.090;2023-08-06T12:10:25;6.47;;;4.75;;
75691;SDS011;64307;52.508;6.090;2023-08-06T12:12:52;5.15;;;3.00;;
75691;SDS011;64307;52.508;6.090;2023-08-06T12:15:18;5.28;;;3.20;;
75691;SDS011;64307;52.508;6.090;2023-08-06T12:17:43;3.88;;;2.22;;
75691;SDS011;64307;52.508;6.090;2023-08-06T12:20:09;4.22;;;2.00;;
75691;SDS011;64307;52.508;6.090;2023-08-06T12:22:35;3.83;;;2.45;;
75691;SDS011;64307;52.508;6.090;2023-08-06T12:25:02;4.32;;;3.03;;
75691;SDS011;64307;52.508;6.090;2023-08-06T12:27:31;4.50;;;2.10;;
75691;SDS011;64307;52.508;6.090;2023-08-06T12:29:57;4.32;;;2.60;;
75691;SDS011;64307;52.508;6.090;2023-08-06T12:32:22;4.63;;;2.28;;
75691;SDS011;64307;52.508;6.090;2023-08-06T12:34:47;4.70;;;2.63;;
75691;SDS011;64307;52.508;6.090;2023-08-06T12:37:13;5.47;;;2.50;;
75691;SDS011;64307;52.508;6.090;2023-08-06T12:39:38;5.73;;;2.70;;
75691;SDS011;64307;52.508;6.090;2023-08-06T12:42:04;4.33;;;2.87;;
75691;SDS011;64307;52.508;6.090;2023-08-06T12:44:31;4.82;;;2.60;;
75691;SDS011;64307;52.508;6.090;2023-08-06T12:46:56;6.45;;;2.75;;
75691;SDS011;64307;52.508;6.090;2023-08-06T12:49:22;9.32;;;6.65;;
75691;SDS011;64307;52.508;6.090;2023-08-06T12:51:48;4.70;;;2.67;;
75691;SDS011;64307;52.508;6.090;2023-08-06T12:54:15;4.95;;;2.78;;
75691;SDS011;64307;52.508;6.090;2023-08-06T12:56:41;8.00;;;6.13;;
75691;SDS011;64307;52.508;6.090;2023-08-06T12:59:07;12.35;;;9.75;;
75691;SDS011;64307;52.508;6.090;2023-08-06T13:01:32;7.57;;;3.03;;
75691;SDS011;64307;52.508;6.090;2023-08-06T13:03:58;7.28;;;5.38;;
75691;SDS011;64307;52.508;6.090;2023-08-06T13:06:24;7.35;;;2.90;;
75691;SDS011;64307;52.508;6.090;2023-08-06T13:08:51;14.50;;;10.80;;
75691;SDS011;64307;52.508;6.090;2023-08-06T13:11:16;6.75;;;4.45;;
75691;SDS011;64307;52.508;6.090;2023-08-06T13:13:41;5.75;;;3.58;;
75691;SDS011;64307;52.508;6.090;2023-08-06T13:16:07;4.97;;;2.80;;
75691;SDS011;64307;52.508;6.090;2023-08-06T13:18:32;5.43;;;2.87;;
75691;SDS011;64307;52.508;6.090;2023-08-06T13:20:57;6.65;;;2.88;;
75691;SDS011;64307;52.508;6.090;2023-08-06T13:23:23;6.85;;;3.22;;
75691;SDS011;64307;52.508;6.090;2023-08-06T13:25:48;5.57;;;2.85;;
75691;SDS011;64307;52.508;6.090;2023-08-06T13:28:14;4.75;;;2.25;;
75691;SDS011;64307;52.508;6.090;2023-08-06T13:30:39;4.57;;;2.23;;
75691;SDS011;64307;52.508;6.090;2023-08-06T13:33:08;3.78;;;1.50;;
75691;SDS011;64307;52.508;6.090;2023-08-06T13:35:34;2.53;;;1.08;;
75691;SDS011;64307;52.508;6.090;2023-08-06T13:37:59;4.17;;;1.53;;
75691;SDS011;64307;52.508;6.090;2023-08-06T13:40:27;5.35;;;2.00;;
75691;SDS011;64307;52.508;6.090;2023-08-06T13:42:53;7.65;;;2.63;;
75691;SDS011;64307;52.508;6.090;2023-08-06T13:45:18;8.23;;;3.90;;
75691;SDS011;64307;52.508;6.090;2023-08-06T13:47:43;8.30;;;4.05;;
75691;SDS011;64307;52.508;6.090;2023-08-06T13:50:09;6.72;;;4.00;;
75691;SDS011;64307;52.508;6.090;2023-08-06T13:52:34;5.47;;;3.83;;
75691;SDS011;64307;52.508;6.090;2023-08-06T13:55:00;9.50;;;4.80;;
75691;SDS011;64307;52.508;6.090;2023-08-06T13:57:26;9.52;;;4.65;;
75691;SDS011;64307;52.508;6.090;2023-08-06T13:59:51;9.27;;;4.20;;
75691;SDS011;64307;52.508;6.090;2023-08-06T14:02:16;6.33;;;3.50;;
75691;SDS011;64307;52.508;6.090;2023-08-06T14:04:42;5.60;;;3.97;;
75691;SDS011;64307;52.508;6.090;2023-08-06T14:07:07;6.00;;;3.58;;
75691;SDS011;64307;52.508;6.090;2023-08-06T14:09:32;6.70;;;3.28;;
75691;SDS011;64307;52.508;6.090;2023-08-06T14:11:59;6.60;;;3.50;;
75691;SDS011;64307;52.508;6.090;2023-08-06T14:14:24;6.57;;;3.83;;
75691;SDS011;64307;52.508;6.090;2023-08-06T14:16:52;7.32;;;3.38;;
75691;SDS011;64307;52.508;6.090;2023-08-06T14:19:18;6.05;;;3.42;;
75691;SDS011;64307;52.508;6.090;2023-08-06T14:21:43;6.80;;;4.15;;
75691;SDS011;64307;52.508;6.090;2023-08-06T14:24:08;6.23;;;4.23;;
75691;SDS011;64307;52.508;6.090;2023-08-06T14:26:33;8.30;;;3.65;;
75691;SDS011;64307;52.508;6.090;2023-08-06T14:28:59;7.20;;;3.75;;
75691;SDS011;64307;52.508;6.090;2023-08-06T14:31:25;6.28;;;3.85;;
75691;SDS011;64307;52.508;6.090;2023-08-06T14:33:50;7.57;;;4.40;;
75691;SDS011;64307;52.508;6.090;2023-08-06T14:36:16;8.23;;;3.47;;
75691;SDS011;64307;52.508;6.090;2023-08-06T14:38:41;8.10;;;4.40;;
75691;SDS011;64307;52.508;6.090;2023-08-06T14:41:06;5.70;;;3.37;;